Lakeland, Florida
Current Conditions -  °F | °C
As of 9:50 AM on Saturday 25 Oct 2014 (Local Time) from KLAL Reporting Station
Clear Clear  
Wind Chill: 66°   Ceiling: Unl
Heat Index: 66°   Visibility: 15mi
Dew Point: 54°   Wind: 8mph
Humidity: 64%   Direction: 20°NNE
Pressure: 30.01"   Gusts: NA
Location:  28.04°N, 81.95°W
Report Text: KLAL 251350Z 02007KT 15SM SKC 19/12 A3001
Loading
Personal Weather Stations






























Interactive Weather Map New forecast layout! Learn more

10-Day Weather Forecast

Advertisements
Track Severe Weather on mobile